Ebbco — WCP3976 — position and weather

sailwx.info

Track history (hours):
 
Tides and Currents Weather Stations Pressure Air Temp Water Temp Dewpoint Dewpoint Depression Visibility Wind Speed Wind Dir Waves Ship Positions

Ebbco

Owner: EVERINGHAM BROS BAIT CO, La Mesa, CA. More information available from US FCC via Universal Licensing System.

Last reported at 2018-Jun-16 17:53 UTC. Time now 2018-Jun-19 19:55 UTC.
Position N 32°47' W 117°18'.

Length 34 m.

Type: Fishing. MMSI: 367378380.

Date/timePositionNaut miles runAvg speedWind from/ knotsBaromVisibWave heightAir tempDewpointWater temp
2018-Jun-16 17:53N 32°47' W 117°18'3 7.1
2018-Jun-16 17:30N 32°50' W 117°19'3 6.6
2018-Jun-16 17:00N 32°53' W 117°17'2 1.9
2018-Jun-16 15:51N 32°55' W 117°16'1 3.3
2018-Jun-16 15:30N 32°56' W 117°16'1 2.8
2018-Jun-16 15:00N 32°57' W 117°17'3 5.6
2018-Jun-16 14:30N 32°60' W 117°18'2 4.2
2018-Jun-16 14:00N 33°02' W 117°19'4 7.5
2018-Jun-16 13:30N 32°58' W 117°17'0 0.7
2018-Jun-16 13:00N 32°58' W 117°17'2 4.1
2018-Jun-16 12:29N 32°56' W 117°16'3 3.5
2018-Jun-16 11:31N 32°53' W 117°17'0 7.6
2018-Jun-16 11:28N 32°53' W 117°18'5 0.1
2018-Jun-14 14:26N 32°48' W 117°19'3 1.1
2018-Jun-14 11:29N 32°51' W 117°18'3 0.2
2018-Jun-13 16:20N 32°48' W 117°19'5 1.6
2018-Jun-13 13:26N 32°53' W 117°18'  
2018-Jun-10 18:04N 32°49' W 117°18'0 6.7
2018-Jun-10 18:00N 32°49' W 117°18'3 6.5
2018-Jun-10 17:28N 32°53' W 117°18'3 6.8
2018-Jun-10 17:00N 32°56' W 117°17'3 4.7
2018-Jun-10 16:25N 32°58' W 117°17'0 0.2
2018-Jun-10 15:49N 32°58' W 117°17'0 0.2
2018-Jun-10 15:24N 32°58' W 117°17'2 4.7
2018-Jun-10 15:00N 32°56' W 117°17'0 0.4
2018-Jun-10 14:00N 32°56' W 117°16'1 2.8
2018-Jun-10 13:29N 32°57' W 117°17'1 1.7
2018-Jun-10 12:59N 32°58' W 117°17'2 4.4
2018-Jun-10 12:29N 32°56' W 117°16'3 3.8
2018-Jun-10 11:36N 32°53' W 117°17'1 7.1
2018-Jun-10 11:30N 32°52' W 117°18'  
Track history (hours):
 
Tides and Currents Weather Stations Pressure Air Temp Water Temp Dewpoint Dewpoint Depression Visibility Wind Speed Wind Dir Waves Ship Positions

Ebbco

Owner: EVERINGHAM BROS BAIT CO, La Mesa, CA. More information available from US FCC via Universal Licensing System.

Last reported at 2018-Jun-16 17:53 UTC. Time now 2018-Jun-19 19:55 UTC.
Position N 32°47' W 117°18'.

Length 34 m.

Type: Fishing. MMSI: 367378380.

Date/timePositionNaut miles runAvg speedWind from/ knotsBaromVisibWave heightAir tempDewpointWater temp
2018-Jun-16 17:53N 32°47' W 117°18'3 7.1
2018-Jun-16 17:30N 32°50' W 117°19'3 6.6
2018-Jun-16 17:00N 32°53' W 117°17'2 1.9
2018-Jun-16 15:51N 32°55' W 117°16'1 3.3
2018-Jun-16 15:30N 32°56' W 117°16'1 2.8
2018-Jun-16 15:00N 32°57' W 117°17'3 5.6
2018-Jun-16 14:30N 32°60' W 117°18'2 4.2
2018-Jun-16 14:00N 33°02' W 117°19'4 7.5
2018-Jun-16 13:30N 32°58' W 117°17'0 0.7
2018-Jun-16 13:00N 32°58' W 117°17'2 4.1
2018-Jun-16 12:29N 32°56' W 117°16'3 3.5
2018-Jun-16 11:31N 32°53' W 117°17'0 7.6
2018-Jun-16 11:28N 32°53' W 117°18'5 0.1
2018-Jun-14 14:26N 32°48' W 117°19'3 1.1
2018-Jun-14 11:29N 32°51' W 117°18'3 0.2
2018-Jun-13 16:20N 32°48' W 117°19'5 1.6
2018-Jun-13 13:26N 32°53' W 117°18'  
2018-Jun-10 18:04N 32°49' W 117°18'0 6.7
2018-Jun-10 18:00N 32°49' W 117°18'3 6.5
2018-Jun-10 17:28N 32°53' W 117°18'3 6.8
2018-Jun-10 17:00N 32°56' W 117°17'3 4.7
2018-Jun-10 16:25N 32°58' W 117°17'0 0.2
2018-Jun-10 15:49N 32°58' W 117°17'0 0.2
2018-Jun-10 15:24N 32°58' W 117°17'2 4.7
2018-Jun-10 15:00N 32°56' W 117°17'0 0.4
2018-Jun-10 14:00N 32°56' W 117°16'1 2.8
2018-Jun-10 13:29N 32°57' W 117°17'1 1.7
2018-Jun-10 12:59N 32°58' W 117°17'2 4.4
2018-Jun-10 12:29N 32°56' W 117°16'3 3.8
2018-Jun-10 11:36N 32°53' W 117°17'1 7.1
2018-Jun-10 11:30N 32°52' W 117°18'  

Dump ship's entire track history